Latest Coastal Weather Observations for Maria Island

IDT60701

Issued at 11:12 am EDT Thursday 21 November 2019 (issued every 10 minutes, with the page automatically refreshed every 10 minutes)

About coastal observations | Map of coastal stations | Coastal observations for TAS | Marine services | Other Formats
Station Details ID: 092124 Name: MARIA ISLAND (POINT LESUEUR) Lat: -42.66 Lon: 148.02 Height: 28.0 m
Data from the previous 72 hours. | See also: Recent months at Maria Island
Date/Time
EDT
Wind Sea
Height
m
Swell Vis
km
Cloud Weather Temp
°C
Press
hPa
Rain since
9am
mm
Dir  Spd
kts
Gust
kts
Height
m
Period
s
Dir
21/11:00am NNW 29 35 - - - - - - - 25.0 995.1 0.0
21/10:30am NNW 32 41 - - - - - - - 26.6 994.9 0.0
21/10:14am NNW 28 35 - - - - - - - 26.6 994.9 0.0
21/10:00am N 19 26 - - - - - - - 26.0 995.5 0.0
21/09:30am N 24 28 - - - - - - - 24.0 995.9 0.0
21/09:00am N 23 26 - - - - - - - 21.2 996.4 0.0
21/08:30am N 22 25 - - - - - - - 19.1 996.7 0.0
21/08:00am N 16 19 - - - - - - - 18.9 997.5 0.0
21/07:30am N 11 14 - - - - - - - 18.7 997.9 0.0
21/07:00am N 11 14 - - - - - - - 17.0 998.4 0.0
21/06:30am N 12 15 - - - - - - - 17.5 998.7 0.0
21/06:00am N 16 17 - - - - - - - 16.9 998.5 0.0
21/05:30am N 16 19 - - - - - - - 16.7 999.3 0.0
21/05:00am N 20 23 - - - - - - - 16.0 999.6 0.0
21/04:30am N 21 24 - - - - - - - 15.6 999.7 0.0
21/04:00am N 20 23 - - - - - - - 15.5 1000.6 0.0
21/03:30am N 20 22 - - - - - - - 14.8 1001.3 0.0
21/03:00am N 22 26 - - - - - - - 14.4 1001.8 0.0
21/02:30am N 24 26 - - - - - - - 14.3 1002.2 0.0
21/02:00am N 24 27 - - - - - - - 14.7 1002.6 0.0
21/01:30am N 25 28 - - - - - - - 15.1 1003.0 0.0
21/01:00am N 23 27 - - - - - - - 15.4 1003.6 0.0
21/12:30am N 21 27 - - - - - - - 15.9 1004.2 0.0
21/12:00am N 22 25 - - - - - - - 15.8 1005.2 0.0
 
Date/Time
EDT
Wind Sea
Height
m
Swell Vis
km
Cloud Weather Temp
°C
Press
hPa
Rain since
9am
mm
Dir  Spd
kts
Gust
kts
Height
m
Period
s
Dir
20/11:30pm N 24 28 - - - - - - - 17.5 1005.5 0.0
20/11:00pm N 22 25 - - - - - - - 17.2 1006.0 0.0
20/10:30pm N 23 25 - - - - - - - 15.7 1006.6 0.0
20/10:00pm N 22 25 - - - - - - - 14.6 1007.3 0.0
20/09:30pm N 24 26 - - - - - - - 14.8 1007.3 0.0
20/09:00pm N 21 24 - - - - - - - 15.2 1007.8 0.0
20/08:30pm N 20 24 - - - - - - - 15.9 1007.9 0.0
20/08:00pm NNE 16 19 - - - - - - - 16.4 1008.0 0.0
20/07:30pm N 18 20 - - - - - - - 15.9 1008.2 0.0
20/07:00pm N 19 24 - - - - - - - 16.9 1008.1 0.0
20/06:30pm N 23 27 - - - - - - - 17.9 1007.5 0.0
20/06:00pm N 17 19 - - - - - - - 18.6 1008.2 0.0
20/05:30pm NNE 15 18 - - - - - - - 18.2 1008.1 0.0
20/05:00pm NNE 16 19 - - - - - - - 17.5 1008.4 0.0
20/04:59pm NNE 16 19 - - - - - - - 17.5 1008.6 0.0
20/04:30pm N 16 18 - - - - - - - 16.8 1010.7 0.0
20/04:00pm NNE 15 17 - - - - - - - 17.1 1010.7 0.0
20/03:30pm N 15 17 - - - - - - - 17.4 1010.8 0.0
20/03:00pm NNE 17 21 - - - - - - - 17.3 1010.1 0.0
20/02:30pm NNE 19 23 - - - - - - - 17.9 1010.4 0.0
20/02:00pm NNE 19 24 - - - - - - - 18.1 1010.4 0.0
20/01:30pm NNE 14 18 - - - - - - - 19.1 1011.4 0.0
20/01:00pm NNE 15 17 - - - - - - - 18.6 1012.1 0.0
20/12:30pm N 13 16 - - - - - - - 18.5 1012.3 0.0
20/12:00pm N 16 20 - - - - - - - 17.9 1012.5 0.0
20/11:30am NNE 16 22 - - - - - - - 17.4 1012.8 0.0
20/11:00am NNE 17 22 - - - - - - - 16.9 1013.1 0.0
20/10:30am N 20 22 - - - - - - - 16.7 1013.0 0.0
20/10:00am NNE 18 23 - - - - - - - 15.5 1013.5 0.0
20/09:30am NNE 20 24 - - - - - - - 14.5 1014.2 0.0
20/09:00am N 21 26 - - - - - - - 14.1 1014.5 0.0
20/08:30am N 21 25 - - - - - - - 13.7 1014.4 0.0
20/08:00am N 21 25 - - - - - - - 13.0 1014.5 0.0
20/07:30am N 20 22 - - - - - - - 12.7 1014.9 0.0
20/07:00am N 12 15 - - - - - - - 12.4 1015.4 0.0
20/06:30am NNE 12 15 - - - - - - - 11.9 1014.9 0.0
20/06:00am NNE 9 12 - - - - - - - 11.6 1014.7 0.0
20/05:30am NNE 9 12 - - - - - - - 11.4 1014.9 0.0
20/05:00am NE 8 10 - - - - - - - 11.2 1015.0 0.0
20/04:30am NNE 9 11 - - - - - - - 11.1 1014.9 0.0
20/04:00am NNE 8 9 - - - - - - - 11.0 1015.4 0.0
20/03:30am NE 4 6 - - - - - - - 10.6 1015.6 0.0
20/03:00am ENE 6 8 - - - - - - - 10.6 1015.5 0.0
20/02:30am ENE 5 7 - - - - - - - 10.7 1016.1 0.0
20/02:00am ENE 6 7 - - - - - - - 10.7 1016.1 0.0
20/01:30am E 6 7 - - - - - - - 10.9 1016.4 0.0
20/01:00am E 4 5 - - - - - - - 10.9 1016.7 0.0
20/12:30am ESE 4 6 - - - - - - - 10.9 1016.7 0.0
20/12:00am ESE 4 5 - - - - - - - 11.0 1016.8 0.0
 
Date/Time
EDT
Wind Sea
Height
m
Swell Vis
km
Cloud Weather Temp
°C
Press
hPa
Rain since
9am
mm
Dir  Spd
kts
Gust
kts
Height
m
Period
s
Dir
19/11:30pm ESE 4 5 - - - - - - - 11.1 1016.8 0.0
19/11:00pm SE 4 5 - - - - - - - 11.2 1016.5 0.0
19/10:30pm SSW 7 9 - - - - - - - 11.3 1016.4 0.0
19/10:00pm SSW 9 11 - - - - - - - 11.3 1016.3 0.0
19/09:30pm SSW 11 13 - - - - - - - 11.5 1016.1 0.0
19/09:00pm SSW 12 13 - - - - - - - 11.5 1015.5 0.0
19/08:30pm SSE 8 11 - - - - - - - 11.5 1015.2 0.0
19/08:00pm SE 7 10 - - - - - - - 11.9 1014.9 0.0
19/07:30pm SSE 9 12 - - - - - - - 12.2 1014.3 0.0
19/07:00pm S 11 13 - - - - - - - 12.7 1013.9 0.0
19/06:30pm S 13 17 - - - - - - - 12.9 1013.6 0.0
19/06:00pm S 14 17 - - - - - - - 13.3 1013.0 0.0
19/05:30pm SSE 8 12 - - - - - - - 13.4 1012.7 0.0
19/05:00pm SE 12 16 - - - - - - - 13.3 1012.3 0.0
19/04:30pm SE 14 17 - - - - - - - 13.2 1011.9 0.0
19/04:00pm SE 12 16 - - - - - - - 13.7 1011.6 0.0
19/03:30pm SE 13 16 - - - - - - - 14.4 1011.2 0.0
19/03:00pm SE 12 16 - - - - - - - 14.9 1010.8 0.0
19/02:30pm ESE 15 18 - - - - - - - 14.5 1010.8 0.0
19/02:00pm ESE 15 23 - - - - - - - 13.4 1010.5 0.0
19/01:30pm S 13 15 - - - - - - - 15.4 1010.3 0.0
19/01:00pm S 14 17 - - - - - - - 15.5 1010.1 0.0
19/12:30pm S 16 19 - - - - - - - 15.3 1010.0 0.0
19/12:00pm S 15 18 - - - - - - - 14.8 1010.0 0.0
19/11:30am S 15 18 - - - - - - - 14.7 1010.0 0.0
19/11:00am SSW 12 15 - - - - - - - 15.5 1010.0 0.0
19/10:30am S 8 13 - - - - - - - 14.8 1009.9 0.0
19/10:00am SE 5 7 - - - - - - - 13.9 1009.8 0.0
19/09:30am SSE 4 5 - - - - - - - 13.5 1009.9 0.0
19/09:00am WSW 6 9 - - - - - - - 14.3 1009.8 0.0
19/08:30am WNW 9 10 - - - - - - - 13.5 1009.6 0.0
19/08:00am WNW 9 11 - - - - - - - 12.9 1009.2 0.0
19/07:30am WNW 11 14 - - - - - - - 13.0 1008.7 0.0
19/07:00am W 6 8 - - - - - - - 10.9 1008.5 0.0
19/06:30am WNW 6 8 - - - - - - - 10.0 1008.1 0.0
19/06:00am W 6 8 - - - - - - - 10.1 1007.8 0.0
19/05:30am W 5 7 - - - - - - - 9.8 1007.3 0.0
19/05:00am WSW 4 5 - - - - - - - 10.8 1006.8 0.0
19/04:30am WNW 5 7 - - - - - - - 10.9 1006.4 0.0
19/04:00am S 2 5 - - - - - - - 11.6 1006.1 0.0
19/03:30am SSW 2 3 - - - - - - - 11.8 1005.9 0.0
19/03:00am E 1 3 - - - - - - - 12.0 1005.6 0.0
19/02:30am NE 3 5 - - - - - - - 12.4 1005.5 0.0
19/02:00am SSW 6 8 - - - - - - - 12.6 1005.2 0.0
19/01:30am SW 4 6 - - - - - - - 12.8 1005.1 0.0
19/01:00am WSW 9 14 - - - - - - - 13.6 1004.9 0.0
19/12:30am SW 11 14 - - - - - - - 13.6 1004.9 0.0
19/12:00am WSW 8 9 - - - - - - - 13.7 1004.9 0.0
 
Date/Time
EDT
Wind Sea
Height
m
Swell Vis
km
Cloud Weather Temp
°C
Press
hPa
Rain since
9am
mm
Dir  Spd
kts
Gust
kts
Height
m
Period
s
Dir
18/11:30pm WNW 6 8 - - - - - - - 14.3 1005.1 0.0
18/11:00pm N 8 10 - - - - - - - 13.9 1004.7 0.0
18/10:30pm NW 13 15 - - - - - - - 14.1 1003.9 0.0
18/10:00pm NW 13 16 - - - - - - - 14.6 1003.5 0.0
18/09:30pm WNW 10 12 - - - - - - - 14.7 1003.7 0.0
18/09:00pm WNW 12 19 - - - - - - - 15.3 1003.8 0.0
18/08:30pm WNW 12 17 - - - - - - - 15.3 1003.3 0.0
18/08:00pm WNW 21 29 - - - - - - - 15.8 1002.7 0.0
18/07:30pm WNW 19 26 - - - - - - - 16.1 1002.5 0.0
18/07:00pm WNW 21 26 - - - - - - - 16.2 1002.1 0.0
18/06:30pm WNW 22 29 - - - - - - - 16.9 1001.2 0.0
18/06:00pm WNW 19 28 - - - - - - - 18.3 1001.3 0.0
18/05:30pm W 14 21 - - - - - - - 19.5 1001.1 0.0
18/05:00pm W 15 20 - - - - - - - 19.3 1001.4 0.0
18/04:30pm W 21 28 - - - - - - - 18.7 1001.4 0.0
18/04:27pm W 21 28 - - - - - - - 18.6 1001.2 0.0
18/04:00pm WNW 21 28 - - - - - - - 17.9 1001.3 0.0
18/03:30pm WNW 22 27 - - - - - - - 18.0 1000.7 0.0
18/03:00pm WNW 21 27 - - - - - - - 18.7 1001.1 0.0
18/02:30pm NW 21 28 - - - - - - - 19.0 1000.9 0.0
18/02:00pm WNW 22 27 - - - - - - - 20.6 1000.8 0.0
18/01:30pm WNW 22 30 - - - - - - - 20.6 1000.8 0.0
18/01:00pm WNW 24 29 - - - - - - - 20.8 1000.7 0.0
18/12:30pm WNW 25 31 - - - - - - - 20.1 1000.9 0.0
18/12:00pm NW 21 27 - - - - - - - 20.0 1001.3 0.0
18/11:30am WNW 20 25 - - - - - - - 19.1 1002.0 0.0

Other formats

Comma delimited format used in spreadsheet applications
http://www.bom.gov.au/fwo/IDT60701/IDT60701.95988.axf

JavaScript Object Notation format (JSON) in row-major order
http://www.bom.gov.au/fwo/IDT60701/IDT60701.95988.json

Data quality

Most of these data are generated automatically and are frequently updated. Quality checks on data are not normally performed. It is possible for incorrect values to appear. Refer to information at About Latest Weather Observations and please check the disclaimer before using these data.